createdAt,value
2023-03-19T00:00:43.910Z,4.70
2023-03-19T00:03:10.991Z,4.80
2023-03-19T00:05:37.995Z,4.80
2023-03-19T00:08:05.470Z,4.80
2023-03-19T00:10:32.409Z,4.80
2023-03-19T00:12:59.317Z,4.80
2023-03-19T00:15:26.470Z,4.80
2023-03-19T00:17:54.303Z,4.80
2023-03-19T00:20:22.252Z,4.80
2023-03-19T00:22:49.236Z,4.90
2023-03-19T00:25:17.324Z,4.80
2023-03-19T00:27:44.675Z,4.80
2023-03-19T00:30:12.358Z,4.80
2023-03-19T00:32:40.546Z,4.80
2023-03-19T00:35:08.765Z,4.80
2023-03-19T00:37:36.387Z,4.80
2023-03-19T00:40:04.519Z,4.80
2023-03-19T00:42:32.055Z,4.80
2023-03-19T00:44:59.187Z,4.80
2023-03-19T00:47:27.112Z,4.80
2023-03-19T00:49:54.003Z,4.80
2023-03-19T00:52:21.153Z,4.80
2023-03-19T00:54:48.112Z,4.80
2023-03-19T00:57:15.252Z,4.90
2023-03-19T00:59:42.182Z,4.90
2023-03-19T01:02:09.106Z,4.90
2023-03-19T01:04:36.352Z,4.80
2023-03-19T01:07:03.499Z,4.90
2023-03-19T01:09:30.840Z,4.90
2023-03-19T01:11:57.743Z,4.90
2023-03-19T01:14:25.484Z,4.90
2023-03-19T01:16:52.403Z,4.90
2023-03-19T01:19:20.138Z,4.90
2023-03-19T01:21:47.184Z,4.90
2023-03-19T01:24:14.195Z,4.90
2023-03-19T01:26:41.545Z,4.90
2023-03-19T01:29:09.153Z,5.00
2023-03-19T01:31:37.330Z,5.00
2023-03-19T01:34:04.624Z,5.00
2023-03-19T01:36:31.595Z,5.00
2023-03-19T01:38:58.566Z,5.00
2023-03-19T01:41:25.781Z,5.00
2023-03-19T01:43:52.698Z,5.00
2023-03-19T01:46:36.505Z,5.00
2023-03-19T01:49:06.971Z,5.00
2023-03-19T01:51:39.680Z,5.00
2023-03-19T01:54:11.632Z,5.00
2023-03-19T01:56:39.780Z,4.90
2023-03-19T01:59:23.190Z,4.90
2023-03-19T02:02:08.227Z,4.90
2023-03-19T02:04:36.079Z,4.90
2023-03-19T02:07:04.040Z,5.00
2023-03-19T02:09:32.759Z,5.00
2023-03-19T02:12:01.714Z,5.00
2023-03-19T02:14:28.910Z,5.00
2023-03-19T02:16:56.176Z,5.00
2023-03-19T02:19:38.425Z,5.00
2023-03-19T02:22:06.737Z,5.00
2023-03-19T02:24:39.022Z,5.00
2023-03-19T02:27:09.233Z,5.00
2023-03-19T02:29:36.380Z,5.10
2023-03-19T02:32:03.818Z,5.10
2023-03-19T02:34:36.820Z,5.10
2023-03-19T02:37:15.051Z,5.00
2023-03-19T02:40:08.154Z,5.00
2023-03-19T02:42:35.454Z,5.00
2023-03-19T02:45:02.571Z,5.00
2023-03-19T02:47:29.627Z,5.00
2023-03-19T02:49:56.544Z,5.00
2023-03-19T02:52:23.511Z,5.00
2023-03-19T02:54:50.489Z,4.90
2023-03-19T02:57:17.500Z,4.90
2023-03-19T02:59:44.640Z,4.90
2023-03-19T03:02:11.758Z,4.90
2023-03-19T03:04:38.699Z,4.90
2023-03-19T03:07:06.275Z,4.90
2023-03-19T03:09:33.243Z,4.90
2023-03-19T03:12:00.984Z,4.90
2023-03-19T03:14:27.989Z,4.90
2023-03-19T03:16:54.904Z,4.90
2023-03-19T03:19:21.900Z,5.00
2023-03-19T03:21:48.957Z,5.00
2023-03-19T03:24:15.927Z,5.00
2023-03-19T03:26:44.229Z,5.00
2023-03-19T03:29:11.197Z,5.00
2023-03-19T03:31:38.161Z,5.00
2023-03-19T03:34:05.071Z,5.00
2023-03-19T03:36:32.514Z,5.00
2023-03-19T03:38:59.896Z,5.00
2023-03-19T03:41:26.966Z,5.00
2023-03-19T03:43:53.902Z,5.00
2023-03-19T03:46:20.936Z,5.00
2023-03-19T03:48:49.439Z,5.00
2023-03-19T03:51:16.348Z,5.00
2023-03-19T03:53:43.328Z,5.00
2023-03-19T03:56:10.304Z,5.00
2023-03-19T03:58:37.895Z,5.00
2023-03-19T04:01:04.917Z,5.00
2023-03-19T04:03:32.048Z,5.00
2023-03-19T04:05:59.019Z,5.00
2023-03-19T04:08:25.939Z,4.90
2023-03-19T04:10:52.843Z,4.90
2023-03-19T04:13:20.384Z,4.90
2023-03-19T04:15:47.816Z,4.90
2023-03-19T04:18:14.753Z,4.90
2023-03-19T04:20:42.087Z,4.90
2023-03-19T04:23:09.004Z,4.90
2023-03-19T04:25:38.850Z,4.90
2023-03-19T04:28:05.820Z,4.80
2023-03-19T04:30:35.337Z,4.90
2023-03-19T04:33:03.568Z,4.80
2023-03-19T04:35:31.353Z,4.90
2023-03-19T04:37:58.317Z,4.90
2023-03-19T04:40:25.315Z,4.90
2023-03-19T04:42:52.313Z,4.90
2023-03-19T04:45:19.702Z,4.90
2023-03-19T04:47:47.017Z,4.80
2023-03-19T04:50:14.675Z,4.90
2023-03-19T04:52:41.751Z,4.90
2023-03-19T04:55:09.093Z,4.90
2023-03-19T04:57:36.853Z,4.80
2023-03-19T05:00:04.032Z,4.80
2023-03-19T05:02:31.117Z,4.80
2023-03-19T05:04:58.040Z,4.90
2023-03-19T05:07:25.066Z,4.80
2023-03-19T05:09:52.161Z,4.80
2023-03-19T05:12:19.089Z,4.80
2023-03-19T05:14:46.510Z,4.80
2023-03-19T05:17:15.249Z,4.80
2023-03-19T05:19:42.466Z,4.80
2023-03-19T05:22:09.541Z,4.60
2023-03-19T05:24:36.581Z,4.60
2023-03-19T05:27:03.580Z,4.60
2023-03-19T05:29:30.778Z,4.60
2023-03-19T05:31:57.718Z,4.60
2023-03-19T05:34:24.667Z,4.60
2023-03-19T05:36:51.921Z,4.60
2023-03-19T05:39:19.599Z,4.60
2023-03-19T05:41:46.768Z,4.60
2023-03-19T05:44:13.670Z,4.60
2023-03-19T05:46:41.705Z,4.50
2023-03-19T05:49:08.702Z,4.50
2023-03-19T05:51:36.845Z,4.50
2023-03-19T05:54:04.137Z,4.60
2023-03-19T05:56:31.024Z,4.60
2023-03-19T05:58:57.980Z,4.60
2023-03-19T06:01:25.092Z,4.60
2023-03-19T06:03:52.102Z,4.70
2023-03-19T06:06:19.072Z,4.70
2023-03-19T06:08:46.840Z,4.80
2023-03-19T06:11:13.916Z,4.80
2023-03-19T06:13:40.973Z,4.80
2023-03-19T06:16:08.331Z,4.90
2023-03-19T06:18:35.338Z,4.90
2023-03-19T06:21:02.307Z,4.90
2023-03-19T06:23:29.260Z,5.00
2023-03-19T06:25:56.439Z,5.00
2023-03-19T06:28:23.654Z,5.00
2023-03-19T06:30:50.668Z,5.00
2023-03-19T06:33:17.606Z,5.00
2023-03-19T06:35:44.659Z,5.00
2023-03-19T06:38:11.690Z,5.10
2023-03-19T06:40:38.713Z,5.10
2023-03-19T06:43:05.749Z,5.10
2023-03-19T06:45:32.706Z,5.20
2023-03-19T06:47:59.650Z,5.30
2023-03-19T06:50:27.288Z,5.20
2023-03-19T06:52:54.234Z,5.30
2023-03-19T06:55:21.141Z,5.30
2023-03-19T06:57:51.513Z,5.20
2023-03-19T07:00:19.321Z,5.20
2023-03-19T07:02:46.475Z,5.20
2023-03-19T07:05:13.841Z,5.20
2023-03-19T07:07:41.066Z,5.20
2023-03-19T07:10:08.890Z,5.20
2023-03-19T07:12:36.187Z,5.20
2023-03-19T07:15:04.828Z,5.20
2023-03-19T07:17:31.816Z,5.20
2023-03-19T07:19:58.834Z,5.30
2023-03-19T07:22:25.792Z,5.30
2023-03-19T07:24:52.696Z,5.30
2023-03-19T07:27:19.632Z,5.30
2023-03-19T07:29:46.532Z,5.30
2023-03-19T07:32:13.755Z,5.30
2023-03-19T07:34:40.771Z,5.30
2023-03-19T07:37:07.913Z,5.40
2023-03-19T07:39:35.041Z,5.40
2023-03-19T07:42:01.967Z,5.40
2023-03-19T07:44:28.878Z,5.40
2023-03-19T07:46:55.915Z,5.40
2023-03-19T07:49:23.886Z,5.50
2023-03-19T07:51:51.258Z,5.50
2023-03-19T07:54:18.305Z,5.60
2023-03-19T07:56:45.411Z,5.60
2023-03-19T07:59:12.492Z,5.60
2023-03-19T08:01:39.417Z,5.70
2023-03-19T08:04:06.560Z,5.70
2023-03-19T08:06:33.640Z,5.80
2023-03-19T08:09:00.874Z,5.70
2023-03-19T08:11:29.889Z,5.70
2023-03-19T08:13:56.993Z,5.70
2023-03-19T08:16:24.133Z,5.70
2023-03-19T08:18:52.537Z,5.70
2023-03-19T08:21:19.642Z,5.80
2023-03-19T08:23:46.699Z,5.80
2023-03-19T08:26:14.964Z,5.80
2023-03-19T08:28:42.057Z,5.80
2023-03-19T08:31:11.412Z,5.80
2023-03-19T08:33:38.909Z,5.80
2023-03-19T08:36:14.101Z,5.80
2023-03-19T08:38:41.744Z,5.80
2023-03-19T08:41:09.966Z,5.90
2023-03-19T08:43:37.543Z,5.80
2023-03-19T08:46:05.697Z,5.80
2023-03-19T08:48:32.848Z,5.90
2023-03-19T08:51:02.689Z,5.90
2023-03-19T08:53:30.076Z,6.00
2023-03-19T08:56:02.775Z,6.00
2023-03-19T08:58:30.293Z,6.00
2023-03-19T09:01:10.012Z,5.90
2023-03-19T09:03:37.922Z,6.00
2023-03-19T09:06:07.020Z,5.90
2023-03-19T09:08:35.600Z,5.90
2023-03-19T09:11:02.927Z,5.90
2023-03-19T09:13:30.554Z,5.90
2023-03-19T09:15:57.600Z,5.90
2023-03-19T09:18:25.593Z,5.90
2023-03-19T09:20:53.986Z,6.00
2023-03-19T09:23:21.819Z,6.00
2023-03-19T09:25:49.324Z,5.90
2023-03-19T09:28:16.757Z,5.90
2023-03-19T09:30:47.405Z,5.90
2023-03-19T09:33:15.224Z,6.00
2023-03-19T09:35:42.851Z,5.90
2023-03-19T09:38:10.284Z,5.90
2023-03-19T09:40:43.618Z,6.00
2023-03-19T09:43:34.500Z,5.90
2023-03-19T09:46:04.828Z,5.90
2023-03-19T09:48:49.167Z,5.90
2023-03-19T09:51:21.909Z,5.90
2023-03-19T09:53:59.493Z,6.00
2023-03-19T09:56:27.142Z,6.00
2023-03-19T09:58:54.398Z,6.00
2023-03-19T10:01:26.798Z,6.10
2023-03-19T10:04:20.813Z,6.10
2023-03-19T10:06:47.897Z,6.20
2023-03-19T10:09:38.835Z,6.20
2023-03-19T10:12:12.192Z,6.10
2023-03-19T10:15:16.248Z,6.20
2023-03-19T10:17:56.484Z,6.20
2023-03-19T10:20:34.826Z,6.20
2023-03-19T10:23:25.269Z,6.10
2023-03-19T10:25:58.389Z,6.10
2023-03-19T10:28:27.884Z,6.10
2023-03-19T10:31:25.131Z,6.20
2023-03-19T10:34:10.795Z,6.20
2023-03-19T10:36:38.758Z,6.20
2023-03-19T10:39:07.914Z,6.10
2023-03-19T10:41:57.923Z,6.20
2023-03-19T10:44:30.262Z,6.30
2023-03-19T10:47:17.635Z,6.30
2023-03-19T10:49:44.630Z,6.40
2023-03-19T10:52:32.323Z,6.40
2023-03-19T10:55:15.439Z,6.40
2023-03-19T10:57:44.202Z,6.30
2023-03-19T11:00:23.155Z,6.20
2023-03-19T11:02:54.530Z,6.20
2023-03-19T11:05:22.003Z,6.10
2023-03-19T11:08:03.979Z,6.10
2023-03-19T11:10:34.189Z,6.10
2023-03-19T11:13:22.256Z,6.10
2023-03-19T11:15:49.797Z,6.10
2023-03-19T11:18:27.934Z,6.20
2023-03-19T11:21:07.455Z,6.20
2023-03-19T11:23:42.442Z,6.20
2023-03-19T11:26:10.467Z,6.20
2023-03-19T11:28:38.182Z,6.20
2023-03-19T11:31:10.324Z,6.20
2023-03-19T11:33:51.405Z,6.20
2023-03-19T11:36:46.565Z,6.10
2023-03-19T11:45:28.295Z,6.10
2023-03-19T11:48:22.745Z,6.10
2023-03-19T11:51:13.579Z,6.20
2023-03-19T11:54:15.512Z,6.30
2023-03-19T11:56:55.660Z,6.40
2023-03-19T11:59:41.152Z,6.50
2023-03-19T12:02:51.713Z,6.50
2023-03-19T12:05:33.735Z,6.60
2023-03-19T12:08:01.037Z,6.70
2023-03-19T12:10:40.395Z,6.70
2023-03-19T12:13:28.721Z,6.60
2023-03-19T12:16:18.478Z,6.70
2023-03-19T12:18:57.831Z,6.60
2023-03-19T12:21:53.579Z,6.60
2023-03-19T12:24:45.453Z,6.50
2023-03-19T12:27:47.836Z,6.50
2023-03-19T12:30:17.568Z,6.40
2023-03-19T12:33:11.921Z,6.40
2023-03-19T12:35:40.943Z,6.40
2023-03-19T12:38:39.395Z,6.50
2023-03-19T12:41:19.425Z,6.40
2023-03-19T12:43:56.003Z,6.40
2023-03-19T12:46:49.169Z,6.30
2023-03-19T12:49:41.993Z,6.40
2023-03-19T12:52:26.785Z,6.40
2023-03-19T12:55:03.344Z,6.40
2023-03-19T12:58:01.143Z,6.50
2023-03-19T13:00:52.738Z,6.50
2023-03-19T13:03:31.412Z,6.50
2023-03-19T13:06:17.408Z,6.50
2023-03-19T13:08:55.330Z,6.50
2023-03-19T13:11:38.393Z,6.40
2023-03-19T13:14:35.093Z,6.40
2023-03-19T13:17:25.951Z,6.40
2023-03-19T13:19:54.487Z,6.40
2023-03-19T13:22:31.577Z,6.30
2023-03-19T13:25:00.386Z,6.30
2023-03-19T13:27:34.585Z,6.30
2023-03-19T13:30:16.496Z,6.30
2023-03-19T13:32:49.266Z,6.30
2023-03-19T13:35:19.230Z,6.20
2023-03-19T13:37:47.567Z,6.20
2023-03-19T13:40:48.596Z,6.20
2023-03-19T13:43:30.551Z,6.10
2023-03-19T13:46:03.516Z,6.10
2023-03-19T13:48:30.479Z,6.10
2023-03-19T13:51:06.365Z,6.10
2023-03-19T13:54:05.013Z,6.10
2023-03-19T13:56:33.966Z,6.10
2023-03-19T13:59:27.746Z,6.10
2023-03-19T14:01:55.807Z,6.00
2023-03-19T14:04:22.879Z,6.00
2023-03-19T14:06:55.429Z,6.00
2023-03-19T14:09:36.559Z,6.00
2023-03-19T14:12:18.537Z,6.00
2023-03-19T14:15:00.185Z,6.00
2023-03-19T14:17:34.675Z,5.90
2023-03-19T14:20:36.529Z,5.90
2023-03-19T14:23:09.201Z,5.90
2023-03-19T14:25:55.220Z,6.00
2023-03-19T14:28:45.018Z,6.00
2023-03-19T14:31:26.799Z,6.00
2023-03-19T14:34:17.029Z,6.10
2023-03-19T14:37:12.792Z,6.10
2023-03-19T14:39:44.875Z,6.10
2023-03-19T14:42:19.140Z,6.20
2023-03-19T14:45:15.504Z,6.20
2023-03-19T14:48:21.528Z,6.10
2023-03-19T14:50:57.452Z,6.00
2023-03-19T14:53:25.985Z,5.90
2023-03-19T14:55:53.645Z,5.90
2023-03-19T14:58:21.708Z,5.90
2023-03-19T15:00:54.514Z,5.90
2023-03-19T15:03:32.449Z,5.90
2023-03-19T15:06:01.423Z,6.00
2023-03-19T15:08:32.126Z,5.90
2023-03-19T15:11:10.628Z,5.90
2023-03-19T15:13:46.541Z,5.90
2023-03-19T15:16:43.990Z,5.90
2023-03-19T15:19:12.306Z,5.90
2023-03-19T15:21:39.687Z,5.90
2023-03-19T15:24:14.643Z,5.90
2023-03-19T15:26:41.965Z,5.90
2023-03-19T15:29:12.456Z,5.90
2023-03-19T15:31:55.003Z,5.90
2023-03-19T15:34:30.121Z,5.90
2023-03-19T15:37:08.456Z,5.90
2023-03-19T15:39:40.652Z,5.90
2023-03-19T15:42:07.670Z,6.00
2023-03-19T15:44:45.050Z,6.00
2023-03-19T15:47:17.638Z,6.10
2023-03-19T15:49:54.712Z,6.10
2023-03-19T15:52:22.134Z,6.10
2023-03-19T15:54:49.114Z,6.10
2023-03-19T15:57:18.260Z,6.10
2023-03-19T15:59:46.641Z,6.10
2023-03-19T16:02:39.561Z,6.10
2023-03-19T16:05:21.367Z,6.10
2023-03-19T16:08:00.399Z,6.10
2023-03-19T16:10:43.806Z,6.10
2023-03-19T16:13:40.351Z,6.10
2023-03-19T16:16:17.470Z,6.00
2023-03-19T16:19:03.119Z,6.10
2023-03-19T16:21:41.458Z,6.00
2023-03-19T16:24:08.508Z,6.00
2023-03-19T16:26:41.295Z,6.00
2023-03-19T16:29:39.932Z,6.00
2023-03-19T16:32:15.722Z,6.00
2023-03-19T16:34:55.776Z,6.00
2023-03-19T16:38:09.332Z,5.90
2023-03-19T16:40:43.307Z,5.80
2023-03-19T16:43:22.180Z,5.80
2023-03-19T16:46:12.548Z,5.80
2023-03-19T16:48:39.837Z,5.70
2023-03-19T16:51:25.011Z,5.70
2023-03-19T16:53:52.017Z,5.70
2023-03-19T16:56:19.789Z,5.60
2023-03-19T16:58:48.352Z,5.60
2023-03-19T17:01:21.100Z,5.60
2023-03-19T17:03:49.796Z,5.60
2023-03-19T17:06:17.212Z,5.60
2023-03-19T17:08:44.747Z,5.50
2023-03-19T17:11:25.402Z,5.60
2023-03-19T17:13:54.083Z,5.50
2023-03-19T17:16:21.346Z,5.50
2023-03-19T17:18:48.465Z,5.40
2023-03-19T17:21:31.282Z,5.40
2023-03-19T17:23:59.473Z,5.40
2023-03-19T17:26:28.786Z,5.40
2023-03-19T17:28:57.006Z,5.40
2023-03-19T17:31:31.842Z,5.50
2023-03-19T17:34:15.465Z,5.40
2023-03-19T17:36:47.596Z,5.40
2023-03-19T17:39:14.554Z,5.40
2023-03-19T17:41:41.607Z,5.40
2023-03-19T17:44:09.088Z,5.40
2023-03-19T17:46:42.133Z,5.40
2023-03-19T17:49:19.780Z,5.40
2023-03-19T17:51:47.124Z,5.30
2023-03-19T17:54:14.425Z,5.30
2023-03-19T17:56:43.436Z,5.30
2023-03-19T17:59:11.191Z,5.30
2023-03-19T18:01:40.263Z,5.20
2023-03-19T18:04:09.881Z,5.20
2023-03-19T18:06:51.119Z,5.20
2023-03-19T18:09:28.559Z,5.20
2023-03-19T18:11:55.897Z,5.10
2023-03-19T18:14:22.967Z,5.10
2023-03-19T18:16:50.323Z,5.10
2023-03-19T18:19:30.217Z,5.10
2023-03-19T18:21:57.205Z,5.00
2023-03-19T18:24:24.131Z,5.00
2023-03-19T18:26:51.066Z,5.00
2023-03-19T18:29:18.147Z,5.00
2023-03-19T18:31:47.479Z,4.90
2023-03-19T18:34:16.592Z,4.90
2023-03-19T18:36:43.767Z,4.90
2023-03-19T18:39:14.062Z,4.90
2023-03-19T18:41:42.083Z,4.80
2023-03-19T18:44:10.390Z,4.80
2023-03-19T18:46:38.668Z,4.70
2023-03-19T18:49:16.090Z,4.60
2023-03-19T18:51:55.059Z,4.60
2023-03-19T18:54:27.992Z,4.60
2023-03-19T18:56:56.174Z,4.50
2023-03-19T18:59:30.403Z,4.40
2023-03-19T19:02:19.468Z,4.40
2023-03-19T19:04:46.583Z,4.50
2023-03-19T19:07:15.323Z,4.40
2023-03-19T19:09:42.568Z,4.40
2023-03-19T19:12:14.386Z,4.30
2023-03-19T19:14:41.860Z,4.30
2023-03-19T19:17:18.258Z,4.30
2023-03-19T19:19:45.532Z,4.30
2023-03-19T19:22:19.438Z,4.30
2023-03-19T19:24:46.628Z,4.20
2023-03-19T19:27:23.401Z,4.20
2023-03-19T19:29:50.991Z,4.20
2023-03-19T19:32:27.220Z,4.20
2023-03-19T19:34:54.640Z,4.20
2023-03-19T19:37:23.598Z,4.20
2023-03-19T19:39:51.232Z,4.10
2023-03-19T19:42:21.742Z,4.10
2023-03-19T19:44:54.390Z,4.10
2023-03-19T19:47:21.770Z,4.00
2023-03-19T19:49:48.761Z,4.00
2023-03-19T19:52:19.475Z,4.00
2023-03-19T19:54:47.204Z,4.00
2023-03-19T19:57:18.750Z,3.90
2023-03-19T19:59:46.333Z,3.90
2023-03-19T20:02:28.787Z,3.80
2023-03-19T20:04:56.960Z,3.80
2023-03-19T20:07:24.174Z,3.80
2023-03-19T20:09:51.558Z,3.80
2023-03-19T20:12:21.646Z,3.80
2023-03-19T20:14:50.046Z,3.70
2023-03-19T20:17:18.718Z,3.70
2023-03-19T20:19:45.733Z,3.70
2023-03-19T20:22:12.726Z,3.70
2023-03-19T20:24:39.660Z,3.70
2023-03-19T20:27:20.300Z,3.70
2023-03-19T20:29:47.622Z,3.70
2023-03-19T20:32:38.868Z,3.60
2023-03-19T20:35:16.393Z,3.60
2023-03-19T20:37:43.516Z,3.60
2023-03-19T20:40:12.593Z,3.50
2023-03-19T20:42:40.996Z,3.50
2023-03-19T20:45:16.045Z,3.50
2023-03-19T20:47:43.297Z,3.50
2023-03-19T20:50:17.527Z,3.50
2023-03-19T20:52:44.612Z,3.40
2023-03-19T20:55:16.879Z,3.40
2023-03-19T20:57:46.021Z,3.40
2023-03-19T21:00:35.954Z,3.30
2023-03-19T21:03:03.071Z,3.30
2023-03-19T21:05:39.170Z,3.30
2023-03-19T21:08:20.550Z,3.20
2023-03-19T21:10:49.227Z,3.30
2023-03-19T21:13:18.566Z,3.30
2023-03-19T21:15:46.994Z,3.20
2023-03-19T21:18:14.212Z,3.20
2023-03-19T21:20:43.733Z,3.30
2023-03-19T21:23:22.802Z,3.20
2023-03-19T21:25:50.062Z,3.30
2023-03-19T21:28:34.463Z,3.30
2023-03-19T21:31:02.235Z,3.30
2023-03-19T21:33:32.864Z,3.20
2023-03-19T21:36:02.066Z,3.20
2023-03-19T21:38:29.124Z,3.20
2023-03-19T21:40:59.848Z,3.20
2023-03-19T21:43:50.059Z,3.10
2023-03-19T21:46:24.575Z,3.20
2023-03-19T21:48:54.575Z,3.10
2023-03-19T21:51:22.600Z,3.20
2023-03-19T21:53:49.769Z,3.20
2023-03-19T21:56:23.281Z,3.20
2023-03-19T21:58:53.535Z,3.10
2023-03-19T22:01:23.849Z,3.10
2023-03-19T22:03:52.010Z,3.10
2023-03-19T22:06:19.247Z,3.10
2023-03-19T22:08:48.262Z,3.10
2023-03-19T22:11:38.354Z,3.10
2023-03-19T22:14:05.430Z,3.10
2023-03-19T22:16:33.161Z,3.10
2023-03-19T22:19:00.197Z,3.20
2023-03-19T22:21:31.010Z,3.10
2023-03-19T22:23:57.973Z,3.10
2023-03-19T22:26:29.291Z,3.10
2023-03-19T22:28:58.800Z,3.10
2023-03-19T22:31:26.117Z,3.00
2023-03-19T22:33:53.622Z,3.00
2023-03-19T22:36:20.855Z,3.00
2023-03-19T22:38:48.946Z,3.00
2023-03-19T22:41:34.781Z,3.00
2023-03-19T22:44:05.206Z,3.00
2023-03-19T22:46:32.643Z,3.00
2023-03-19T22:48:59.596Z,3.00
2023-03-19T22:51:27.751Z,3.00
2023-03-19T22:53:55.490Z,3.10
2023-03-19T22:56:22.867Z,3.00
2023-03-19T22:58:49.849Z,3.00
2023-03-19T23:01:52.251Z,3.00
2023-03-19T23:04:26.408Z,3.00
2023-03-19T23:06:55.472Z,3.00
2023-03-19T23:09:24.180Z,3.00
2023-03-19T23:11:51.782Z,3.10
2023-03-19T23:14:29.030Z,3.10
2023-03-19T23:17:00.078Z,3.10
2023-03-19T23:19:32.687Z,3.10
2023-03-19T23:22:02.546Z,3.10
2023-03-19T23:24:30.736Z,3.10
2023-03-19T23:26:59.107Z,3.10
2023-03-19T23:29:32.381Z,3.10
2023-03-19T23:32:00.511Z,3.10
2023-03-19T23:34:28.673Z,3.10
2023-03-19T23:36:56.263Z,3.20
2023-03-19T23:39:24.042Z,3.10
2023-03-19T23:41:55.705Z,3.10
2023-03-19T23:44:22.698Z,3.10
2023-03-19T23:46:50.896Z,3.10
2023-03-19T23:49:27.129Z,3.20
2023-03-19T23:51:54.080Z,3.10
2023-03-19T23:54:36.660Z,3.10
2023-03-19T23:57:11.665Z,3.10
2023-03-19T23:59:41.870Z,3.10
